Terminal Aerodrome Forecast
Issued by NWS

Home | Current Version | Previous Version | Text Only | Print | Product List | Glossary On
Versions: 1 2 3 4 5 6 7 8 9 10 11 12 13 14 15 16 17 18 19 20 21
841
FTUS43 KDTX 070520
TAFMBS
TAF
KMBS 070520Z 0706/0806 22007KT P6SM BKN120
     FM071700 20012G20KT P6SM OVC080
     FM072200 22010KT P6SM SCT035 OVC050
     FM080200 24007KT P6SM SCT025 OVC035=

USA.gov is the U.S. government's official web portal to all federal, state and local government web resources and services.